DLH179 EDLW-EDDN
Flight info
| Callsign | DLH179 |
|---|---|
| Flight time | 0h 43m |
| Altitude | 23000 |
| Route | GMH8Q GMH DCT ARPEG DCT AMETU DCT KERAX DCT KOMIB T193 ERTES T194 DODAS DODAS1V |
| Aircraft | A320/M-SDE3FGHIRWY/LB1 |
Departure
| Time | 2026-04-27 14:03 |
|---|---|
| Airport | Dortmund Airport (EDLW) |
Arrival
| Time | 2026-04-27 14:46 |
|---|---|
| Airport | Nuremberg Airport (EDDN) |
| Time | Latitude | Longitude | Altitude | Speed | Heading |
|---|---|---|---|---|---|
| 2026-04-27 13:29 | 51.51666 | 7.61517 | 434 ft | 0 kts | 332° |
| 2026-04-27 13:57 | 51.51682 | 7.61504 | 422 ft | 2 kts | 332° |
| 2026-04-27 13:57 | 51.51704 | 7.61481 | 434 ft | 8 kts | 315° |
| 2026-04-27 13:57 | 51.51686 | 7.61350 | 427 ft | 12 kts | 243° |
| 2026-04-27 13:58 | 51.51646 | 7.61236 | 425 ft | 11 kts | 239° |
| 2026-04-27 13:58 | 51.51610 | 7.61137 | 428 ft | 10 kts | 240° |
| 2026-04-27 13:58 | 51.51581 | 7.61043 | 427 ft | 9 kts | 246° |
| 2026-04-27 13:58 | 51.51554 | 7.60948 | 422 ft | 10 kts | 243° |
| 2026-04-27 13:59 | 51.51514 | 7.60831 | 415 ft | 14 kts | 240° |
| 2026-04-27 13:59 | 51.51461 | 7.60682 | 413 ft | 15 kts | 240° |
| 2026-04-27 13:59 | 51.51432 | 7.60598 | 414 ft | 2 kts | 240° |
| 2026-04-27 13:59 | 51.51431 | 7.60595 | 414 ft | 0 kts | 240° |
| 2026-04-27 14:01 | 51.51404 | 7.60517 | 417 ft | 12 kts | 240° |
| 2026-04-27 14:01 | 51.51363 | 7.60393 | 417 ft | 13 kts | 249° |
| 2026-04-27 14:01 | 51.51399 | 7.60271 | 415 ft | 17 kts | 324° |
| 2026-04-27 14:02 | 51.51491 | 7.60265 | 413 ft | 11 kts | 40° |
| 2026-04-27 14:02 | 51.51535 | 7.60382 | 412 ft | 17 kts | 60° |
| 2026-04-27 14:02 | 51.51726 | 7.60920 | 416 ft | 92 kts | 62° |
| 2026-04-27 14:02 | 51.52146 | 7.62100 | 439 ft | 146 kts | 60° |
| 2026-04-27 14:03 | 51.52651 | 7.63627 | 888 ft | 160 kts | 62° |
| 2026-04-27 14:03 | 51.53179 | 7.65183 | 1708 ft | 158 kts | 59° |
| 2026-04-27 14:03 | 51.53758 | 7.66806 | 2252 ft | 179 kts | 59° |
| 2026-04-27 14:03 | 51.54412 | 7.68623 | 2776 ft | 195 kts | 58° |
| 2026-04-27 14:04 | 51.55125 | 7.70598 | 3225 ft | 214 kts | 58° |
| 2026-04-27 14:04 | 51.55867 | 7.72810 | 3798 ft | 233 kts | 70° |
| 2026-04-27 14:04 | 51.55901 | 7.75419 | 4519 ft | 242 kts | 109° |
| 2026-04-27 14:04 | 51.54943 | 7.77647 | 4935 ft | 247 kts | 139° |
| 2026-04-27 14:05 | 51.53385 | 7.78850 | 5004 ft | 259 kts | 171° |
| 2026-04-27 14:05 | 51.51568 | 7.78895 | 5011 ft | 264 kts | 186° |
| 2026-04-27 14:05 | 51.49774 | 7.78241 | 5002 ft | 265 kts | 198° |
| 2026-04-27 14:05 | 51.48044 | 7.77171 | 5008 ft | 266 kts | 200° |
| 2026-04-27 14:06 | 51.46306 | 7.76145 | 5012 ft | 266 kts | 199° |
| 2026-04-27 14:06 | 51.44532 | 7.75310 | 5006 ft | 266 kts | 188° |
| 2026-04-27 14:06 | 51.42689 | 7.75191 | 5013 ft | 265 kts | 174° |
| 2026-04-27 14:06 | 51.40894 | 7.75799 | 5012 ft | 264 kts | 160° |
| 2026-04-27 14:07 | 51.39163 | 7.76796 | 5010 ft | 265 kts | 160° |
| 2026-04-27 14:07 | 51.37386 | 7.77803 | 5586 ft | 273 kts | 160° |
| 2026-04-27 14:07 | 51.35595 | 7.78811 | 6692 ft | 274 kts | 161° |
| 2026-04-27 14:07 | 51.33781 | 7.79825 | 7613 ft | 278 kts | 161° |
| 2026-04-27 14:08 | 51.31937 | 7.80852 | 8537 ft | 283 kts | 162° |
| 2026-04-27 14:08 | 51.30060 | 7.81898 | 9458 ft | 288 kts | 162° |
| 2026-04-27 14:08 | 51.28155 | 7.82963 | 10355 ft | 293 kts | 162° |
| 2026-04-27 14:08 | 51.26150 | 7.84082 | 10739 ft | 317 kts | 162° |
| 2026-04-27 14:09 | 51.23996 | 7.85285 | 11117 ft | 337 kts | 162° |
| 2026-04-27 14:09 | 51.21788 | 7.86525 | 11814 ft | 345 kts | 162° |
| 2026-04-27 14:09 | 51.19543 | 7.87977 | 12612 ft | 352 kts | 154° |
| 2026-04-27 14:09 | 51.17463 | 7.90179 | 13429 ft | 359 kts | 141° |
| 2026-04-27 14:10 | 51.15735 | 7.93031 | 14173 ft | 366 kts | 129° |
| 2026-04-27 14:10 | 51.14353 | 7.96478 | 14842 ft | 373 kts | 121° |
| 2026-04-27 14:10 | 51.13034 | 8.00063 | 15512 ft | 378 kts | 121° |
| 2026-04-27 14:10 | 51.11691 | 8.03697 | 16168 ft | 383 kts | 121° |
| 2026-04-27 14:11 | 51.10327 | 8.07379 | 16812 ft | 388 kts | 121° |
| 2026-04-27 14:11 | 51.08945 | 8.11109 | 17449 ft | 394 kts | 121° |
| 2026-04-27 14:11 | 51.07543 | 8.14880 | 18089 ft | 399 kts | 121° |
| 2026-04-27 14:11 | 51.06115 | 8.18706 | 18700 ft | 405 kts | 121° |
| 2026-04-27 14:12 | 51.04671 | 8.22567 | 19261 ft | 409 kts | 122° |
| 2026-04-27 14:12 | 51.03210 | 8.26475 | 19814 ft | 413 kts | 122° |
| 2026-04-27 14:12 | 51.01755 | 8.30442 | 20408 ft | 418 kts | 118° |
| 2026-04-27 14:12 | 51.00542 | 8.34663 | 20993 ft | 422 kts | 114° |
| 2026-04-27 14:13 | 50.99366 | 8.38953 | 21588 ft | 426 kts | 114° |
| 2026-04-27 14:13 | 50.98177 | 8.43277 | 22174 ft | 430 kts | 114° |
| 2026-04-27 14:13 | 50.96972 | 8.47633 | 22739 ft | 434 kts | 115° |
| 2026-04-27 14:13 | 50.95752 | 8.52032 | 23138 ft | 437 kts | 115° |
| 2026-04-27 14:14 | 50.94527 | 8.56443 | 23225 ft | 437 kts | 115° |
| 2026-04-27 14:14 | 50.93298 | 8.60862 | 23227 ft | 437 kts | 115° |
| 2026-04-27 14:14 | 50.92071 | 8.65266 | 23225 ft | 437 kts | 115° |
| 2026-04-27 14:14 | 50.90840 | 8.69675 | 23226 ft | 437 kts | 115° |
| 2026-04-27 14:15 | 50.89606 | 8.74079 | 23227 ft | 438 kts | 115° |
| 2026-04-27 14:15 | 50.88367 | 8.78483 | 23224 ft | 438 kts | 115° |
| 2026-04-27 14:15 | 50.87128 | 8.82879 | 23226 ft | 438 kts | 115° |
| 2026-04-27 14:15 | 50.85888 | 8.87275 | 23229 ft | 438 kts | 115° |
| 2026-04-27 14:16 | 50.84647 | 8.91676 | 23226 ft | 437 kts | 115° |
| 2026-04-27 14:16 | 50.83231 | 8.95918 | 23227 ft | 436 kts | 124° |
| 2026-04-27 14:16 | 50.81418 | 8.99744 | 23225 ft | 433 kts | 134° |
| 2026-04-27 14:16 | 50.79392 | 9.03269 | 23223 ft | 433 kts | 135° |
| 2026-04-27 14:17 | 50.77365 | 9.06788 | 23226 ft | 433 kts | 135° |
| 2026-04-27 14:17 | 50.75334 | 9.10312 | 23222 ft | 433 kts | 135° |
| 2026-04-27 14:17 | 50.73306 | 9.13830 | 23225 ft | 433 kts | 135° |
| 2026-04-27 14:17 | 50.71280 | 9.17341 | 23220 ft | 433 kts | 135° |
| 2026-04-27 14:18 | 50.69251 | 9.20855 | 23220 ft | 433 kts | 135° |
| 2026-04-27 14:18 | 50.67221 | 9.24364 | 23222 ft | 433 kts | 135° |
| 2026-04-27 14:18 | 50.65186 | 9.27877 | 23216 ft | 433 kts | 135° |
| 2026-04-27 14:18 | 50.63155 | 9.31380 | 23224 ft | 433 kts | 135° |
| 2026-04-27 14:19 | 50.61123 | 9.34873 | 23230 ft | 433 kts | 135° |
| 2026-04-27 14:19 | 50.59084 | 9.38373 | 23219 ft | 433 kts | 135° |
| 2026-04-27 14:19 | 50.57046 | 9.41868 | 23220 ft | 433 kts | 135° |
| 2026-04-27 14:19 | 50.55005 | 9.45361 | 23226 ft | 433 kts | 135° |
| 2026-04-27 14:20 | 50.52964 | 9.48855 | 23222 ft | 433 kts | 135° |
| 2026-04-27 14:20 | 50.50924 | 9.52345 | 23222 ft | 433 kts | 135° |
| 2026-04-27 14:20 | 50.48880 | 9.55828 | 23227 ft | 433 kts | 135° |
| 2026-04-27 14:20 | 50.46860 | 9.59260 | 23200 ft | 433 kts | 135° |
| 2026-04-27 14:21 | 50.44801 | 9.62721 | 23205 ft | 433 kts | 135° |
| 2026-04-27 14:21 | 50.42733 | 9.66156 | 23211 ft | 434 kts | 135° |
| 2026-04-27 14:21 | 50.40659 | 9.69584 | 23212 ft | 433 kts | 136° |
| 2026-04-27 14:21 | 50.38579 | 9.73015 | 23210 ft | 433 kts | 136° |
| 2026-04-27 14:22 | 50.36499 | 9.76446 | 23212 ft | 434 kts | 135° |
| 2026-04-27 14:22 | 50.34425 | 9.79874 | 23211 ft | 434 kts | 135° |
| 2026-04-27 14:22 | 50.32352 | 9.83306 | 23217 ft | 434 kts | 135° |
| 2026-04-27 14:22 | 50.30275 | 9.86744 | 23219 ft | 434 kts | 135° |
| 2026-04-27 14:23 | 50.28198 | 9.90172 | 23226 ft | 434 kts | 135° |
| 2026-04-27 14:23 | 50.26115 | 9.93598 | 23219 ft | 434 kts | 135° |
| 2026-04-27 14:23 | 50.24035 | 9.97017 | 23219 ft | 434 kts | 135° |
| 2026-04-27 14:23 | 50.21953 | 10.00435 | 23218 ft | 434 kts | 135° |
| 2026-04-27 14:24 | 50.19872 | 10.03846 | 23206 ft | 434 kts | 135° |
| 2026-04-27 14:24 | 50.17789 | 10.07250 | 23207 ft | 434 kts | 136° |
| 2026-04-27 14:24 | 50.15700 | 10.10653 | 23210 ft | 434 kts | 136° |
| 2026-04-27 14:24 | 50.13605 | 10.14054 | 23212 ft | 434 kts | 136° |
| 2026-04-27 14:25 | 50.11514 | 10.17449 | 23214 ft | 435 kts | 135° |
| 2026-04-27 14:25 | 50.09426 | 10.20852 | 23211 ft | 435 kts | 135° |
| 2026-04-27 14:25 | 50.07521 | 10.24515 | 23207 ft | 437 kts | 125° |
| 2026-04-27 14:25 | 50.06014 | 10.28614 | 23213 ft | 437 kts | 116° |
| 2026-04-27 14:26 | 50.04718 | 10.32905 | 23214 ft | 438 kts | 116° |
| 2026-04-27 14:26 | 50.03410 | 10.37198 | 23219 ft | 438 kts | 116° |
| 2026-04-27 14:26 | 50.02101 | 10.41464 | 23215 ft | 438 kts | 116° |
| 2026-04-27 14:26 | 50.00786 | 10.45729 | 23213 ft | 438 kts | 116° |
| 2026-04-27 14:27 | 49.99467 | 10.50000 | 23207 ft | 438 kts | 116° |
| 2026-04-27 14:27 | 49.98593 | 10.52827 | 23225 ft | 438 kts | 116° |
| 2026-04-27 14:27 | 49.97047 | 10.56894 | 23221 ft | 437 kts | 127° |
| 2026-04-27 14:27 | 49.95062 | 10.60439 | 23216 ft | 434 kts | 139° |
| 2026-04-27 14:28 | 49.92705 | 10.63350 | 23196 ft | 431 kts | 150° |
| 2026-04-27 14:28 | 49.90083 | 10.65543 | 23192 ft | 427 kts | 160° |
| 2026-04-27 14:28 | 49.87299 | 10.67100 | 23194 ft | 425 kts | 165° |
| 2026-04-27 14:28 | 49.84499 | 10.68570 | 23206 ft | 425 kts | 165° |
| 2026-04-27 14:29 | 49.81706 | 10.69995 | 23062 ft | 417 kts | 168° |
| 2026-04-27 14:29 | 49.78900 | 10.70812 | 22790 ft | 406 kts | 178° |
| 2026-04-27 14:29 | 49.76101 | 10.71287 | 22512 ft | 402 kts | 178° |
| 2026-04-27 14:29 | 49.73338 | 10.71754 | 22027 ft | 398 kts | 178° |
| 2026-04-27 14:30 | 49.70598 | 10.72241 | 21520 ft | 396 kts | 174° |
| 2026-04-27 14:30 | 49.67951 | 10.73460 | 20992 ft | 399 kts | 158° |
| 2026-04-27 14:30 | 49.65602 | 10.75746 | 20467 ft | 402 kts | 141° |
| 2026-04-27 14:30 | 49.63735 | 10.78969 | 19838 ft | 406 kts | 124° |
| 2026-04-27 14:31 | 49.62510 | 10.82903 | 19206 ft | 408 kts | 107° |
| 2026-04-27 14:31 | 49.61838 | 10.87168 | 18280 ft | 416 kts | 101° |
| 2026-04-27 14:31 | 49.61331 | 10.91582 | 17083 ft | 416 kts | 98° |
| 2026-04-27 14:31 | 49.60936 | 10.95964 | 16047 ft | 408 kts | 97° |
| 2026-04-27 14:32 | 49.60604 | 11.00160 | 15838 ft | 379 kts | 96° |
| 2026-04-27 14:32 | 49.60293 | 11.04040 | 15748 ft | 351 kts | 97° |
| 2026-04-27 14:32 | 49.59983 | 11.07639 | 15670 ft | 327 kts | 97° |
| 2026-04-27 14:32 | 49.59669 | 11.10989 | 15597 ft | 306 kts | 98° |
| 2026-04-27 14:33 | 49.59357 | 11.14166 | 15374 ft | 299 kts | 98° |
| 2026-04-27 14:33 | 49.59040 | 11.17346 | 15004 ft | 302 kts | 98° |
| 2026-04-27 14:33 | 49.58716 | 11.20576 | 14630 ft | 305 kts | 98° |
| 2026-04-27 14:33 | 49.58390 | 11.23821 | 14232 ft | 308 kts | 98° |
| 2026-04-27 14:34 | 49.58060 | 11.27100 | 13811 ft | 311 kts | 98° |
| 2026-04-27 14:34 | 49.57725 | 11.30407 | 13383 ft | 313 kts | 98° |
| 2026-04-27 14:34 | 49.57388 | 11.33730 | 13032 ft | 312 kts | 98° |
| 2026-04-27 14:34 | 49.57059 | 11.36991 | 12676 ft | 308 kts | 98° |
| 2026-04-27 14:35 | 49.56733 | 11.40232 | 12139 ft | 302 kts | 98° |
| 2026-04-27 14:35 | 49.56415 | 11.43378 | 11732 ft | 292 kts | 98° |
| 2026-04-27 14:35 | 49.56108 | 11.46418 | 11332 ft | 283 kts | 98° |
| 2026-04-27 14:35 | 49.55807 | 11.49374 | 10938 ft | 276 kts | 98° |
| 2026-04-27 14:36 | 49.55512 | 11.52262 | 10600 ft | 269 kts | 98° |
| 2026-04-27 14:36 | 49.55225 | 11.55053 | 10530 ft | 255 kts | 98° |
| 2026-04-27 14:36 | 49.54954 | 11.57676 | 10408 ft | 244 kts | 98° |
| 2026-04-27 14:36 | 49.54544 | 11.60168 | 10115 ft | 239 kts | 114° |
| 2026-04-27 14:37 | 49.53611 | 11.62259 | 9654 ft | 237 kts | 136° |
| 2026-04-27 14:37 | 49.52259 | 11.63680 | 9209 ft | 235 kts | 158° |
| 2026-04-27 14:37 | 49.50690 | 11.64269 | 8746 ft | 232 kts | 179° |
| 2026-04-27 14:37 | 49.49096 | 11.64040 | 8333 ft | 230 kts | 191° |
| 2026-04-27 14:38 | 49.47497 | 11.63636 | 7862 ft | 238 kts | 190° |
| 2026-04-27 14:38 | 49.45859 | 11.63075 | 7255 ft | 251 kts | 204° |
| 2026-04-27 14:38 | 49.44470 | 11.61498 | 6959 ft | 245 kts | 233° |
| 2026-04-27 14:38 | 49.43739 | 11.59276 | 6820 ft | 226 kts | 259° |
| 2026-04-27 14:39 | 49.43700 | 11.56940 | 6700 ft | 213 kts | 283° |
| 2026-04-27 14:39 | 49.44090 | 11.54827 | 6569 ft | 200 kts | 287° |
| 2026-04-27 14:39 | 49.44470 | 11.52820 | 6495 ft | 193 kts | 287° |
| 2026-04-27 14:39 | 49.44842 | 11.50848 | 6326 ft | 192 kts | 287° |
| 2026-04-27 14:40 | 49.45212 | 11.48888 | 6045 ft | 190 kts | 287° |
| 2026-04-27 14:40 | 49.45581 | 11.46935 | 5804 ft | 190 kts | 287° |
| 2026-04-27 14:40 | 49.45947 | 11.44995 | 5574 ft | 189 kts | 287° |
| 2026-04-27 14:40 | 49.46314 | 11.43053 | 5352 ft | 188 kts | 287° |
| 2026-04-27 14:41 | 49.46546 | 11.41070 | 5103 ft | 189 kts | 279° |
| 2026-04-27 14:41 | 49.46744 | 11.39082 | 4846 ft | 188 kts | 280° |
| 2026-04-27 14:41 | 49.46942 | 11.37120 | 4580 ft | 182 kts | 280° |
| 2026-04-27 14:41 | 49.47134 | 11.35222 | 4334 ft | 178 kts | 280° |
| 2026-04-27 14:42 | 49.47324 | 11.33348 | 4097 ft | 176 kts | 280° |
| 2026-04-27 14:42 | 49.47512 | 11.31492 | 3849 ft | 174 kts | 280° |
| 2026-04-27 14:42 | 49.47694 | 11.29691 | 3627 ft | 166 kts | 280° |
| 2026-04-27 14:42 | 49.47864 | 11.27990 | 3408 ft | 156 kts | 280° |
| 2026-04-27 14:43 | 49.48024 | 11.26390 | 3213 ft | 146 kts | 280° |
| 2026-04-27 14:43 | 49.48177 | 11.24867 | 3040 ft | 143 kts | 280° |
| 2026-04-27 14:43 | 49.48326 | 11.23375 | 2828 ft | 139 kts | 282° |
| 2026-04-27 14:43 | 49.48473 | 11.21904 | 2647 ft | 139 kts | 282° |
| 2026-04-27 14:44 | 49.48618 | 11.20445 | 2471 ft | 139 kts | 281° |
| 2026-04-27 14:44 | 49.48763 | 11.18977 | 2282 ft | 138 kts | 281° |
| 2026-04-27 14:44 | 49.48908 | 11.17520 | 2091 ft | 138 kts | 281° |
| 2026-04-27 14:44 | 49.49051 | 11.16070 | 1910 ft | 136 kts | 280° |
| 2026-04-27 14:45 | 49.49192 | 11.14648 | 1729 ft | 133 kts | 280° |
| 2026-04-27 14:45 | 49.49329 | 11.13237 | 1561 ft | 132 kts | 278° |
| 2026-04-27 14:45 | 49.49456 | 11.11866 | 1370 ft | 131 kts | 280° |
| 2026-04-27 14:45 | 49.49600 | 11.10461 | 1215 ft | 130 kts | 280° |
| 2026-04-27 14:46 | 49.49740 | 11.09095 | 1049 ft | 124 kts | 280° |
| 2026-04-27 14:46 | 49.49854 | 11.07998 | 1032 ft | 71 kts | 278° |
| 2026-04-27 14:46 | 49.49875 | 11.07660 | 1032 ft | 14 kts | 241° |
| 2026-04-27 14:46 | 49.49799 | 11.07669 | 1032 ft | 11 kts | 150° |
| 2026-04-27 14:47 | 49.49760 | 11.07700 | 1032 ft | 0 kts | 153° |
| 2026-04-27 14:48 | 49.49753 | 11.07706 | 1033 ft | 6 kts | 153° |
| 2026-04-27 14:49 | 49.49711 | 11.07739 | 1032 ft | 7 kts | 153° |
| 2026-04-27 14:49 | 49.49668 | 11.07768 | 1031 ft | 6 kts | 165° |
| 2026-04-27 14:49 | 49.49645 | 11.07769 | 1031 ft | 0 kts | 183° |
| 2026-04-27 14:49 | 49.49626 | 11.07766 | 1031 ft | 7 kts | 189° |
| 2026-04-27 14:50 | 49.49593 | 11.07717 | 1030 ft | 7 kts | 255° |
| 2026-04-27 14:50 | 49.49582 | 11.07685 | 1028 ft | 0 kts | 223° |
| 2026-04-27 14:50 | 49.49582 | 11.07684 | 1028 ft | 0 kts | 222° |
| 2026-04-27 14:50 | 49.49574 | 11.07673 | 1028 ft | 3 kts | 221° |
| 2026-04-27 14:51 | 49.49548 | 11.07663 | 1024 ft | 5 kts | 185° |
| 2026-04-27 14:51 | 49.49533 | 11.07660 | 1027 ft | 1 kts | 186° |
| 2026-04-27 14:51 | 49.49529 | 11.07659 | 1024 ft | 0 kts | 186° |